Weather at Seattle Tacoma International Airport

Public forecast

Using degrees Fahrenheit for public forecast. Weather courtesy of forecast.io.

Current aviation weather report (METAR) for Seattle Tacoma International Airport

Retrieved 2021/04/20 21:53 UTC (11 minutes ago):

KSEA 202153Z 30010KT 10SM FEW050 21/04 A3016 RMK AO2 SLP217 T02110039

Aviation forecast (TAF) for Seattle Tacoma International Airport

Retrieved 2021/04/20 18:22 UTC (4 hours ago):

TAF KSEA 201720Z 2018/2124 31005KT P6SM SKC FM202100 34009KT P6SM SKC FM210600 03003KT P6SM SKC FM211800 30004KT P6SM SKC